Time;durP1;ratioP1;P1;durP2;ratioP2;P2;SDS_P1;SDS_P2;PMS_P1;PMS_P2;Temp;Humidity;BMP_temperature;BMP_pressure;BME280_temperature;BME280_humidity;BME280_pressure;Samples;Min_cycle;Max_cycle;Signal;HPM_P1;HPM_P2
2021/11/27 00:00:44;;;;;;;13.55;10.70;;;6.00;99.90;;;;;;5066594;28;20373;-43
2021/11/27 00:03:11;;;;;;;15.65;12.38;;;6.00;99.90;;;;;;5067066;28;20044;-43
2021/11/27 00:05:38;;;;;;;13.13;11.35;;;6.00;99.90;;;;;;5067386;28;20024;-43
2021/11/27 00:08:09;;;;;;;16.85;13.65;;;6.00;99.90;;;;;;5066657;28;20376;-43
2021/11/27 00:10:37;;;;;;;18.92;14.85;;;5.90;99.90;;;;;;5065688;28;20480;-43
2021/11/27 00:13:05;;;;;;;16.85;13.95;;;5.90;99.90;;;;;;5066394;28;20410;-42
2021/11/27 00:15:33;;;;;;;17.38;13.63;;;5.90;99.90;;;;;;5064445;28;20027;-43
2021/11/27 00:17:59;;;;;;;14.25;12.18;;;5.90;99.90;;;;;;5066708;28;20037;-43
2021/11/27 00:20:32;;;;;;;15.88;12.63;;;5.90;99.90;;;;;;5066994;28;20463;-42
2021/11/27 00:23:00;;;;;;;14.80;11.85;;;5.80;99.90;;;;;;5065998;28;20094;-42
2021/11/27 00:25:27;;;;;;;16.35;12.52;;;5.90;99.90;;;;;;5066643;28;20039;-43
2021/11/27 00:27:53;;;;;;;15.15;12.90;;;5.80;99.90;;;;;;5066737;28;20056;-43
2021/11/27 00:30:23;;;;;;;13.65;11.40;;;5.90;99.90;;;;;;5067264;28;20055;-44
2021/11/27 00:32:49;;;;;;;17.90;12.80;;;5.90;99.90;;;;;;5067141;28;20020;-42
2021/11/27 00:35:14;;;;;;;18.00;14.30;;;5.90;99.90;;;;;;5067727;28;20526;-43
2021/11/27 00:37:40;;;;;;;18.83;14.43;;;5.80;99.90;;;;;;5070377;28;20520;-44
2021/11/27 00:40:09;;;;;;;17.65;13.77;;;5.80;99.90;;;;;;5070793;28;20663;-43
2021/11/27 00:42:34;;;;;;;19.58;13.93;;;5.80;99.90;;;;;;5070869;28;20170;-43
2021/11/27 00:45:01;;;;;;;20.02;14.57;;;5.70;99.90;;;;;;5070667;28;20462;-44
2021/11/27 00:47:29;;;;;;;16.63;13.63;;;5.70;99.90;;;;;;5071046;28;20036;-43
2021/11/27 00:49:55;;;;;;;15.38;11.85;;;5.70;99.90;;;;;;5069925;28;20017;-43
2021/11/27 00:52:22;;;;;;;16.75;13.02;;;5.70;99.90;;;;;;5070926;28;20032;-44
2021/11/27 00:54:48;;;;;;;17.13;12.10;;;5.70;99.90;;;;;;5070202;28;20029;-42
2021/11/27 00:57:13;;;;;;;16.88;12.07;;;5.70;99.90;;;;;;5069938;28;20237;-43
2021/11/27 00:59:39;;;;;;;15.45;11.68;;;5.70;99.90;;;;;;5069549;28;20033;-42
2021/11/27 01:02:05;;;;;;;14.50;11.13;;;5.60;99.90;;;;;;5070502;28;20040;-43
2021/11/27 01:04:31;;;;;;;16.15;11.88;;;5.60;99.90;;;;;;5068973;28;20110;-43
2021/11/27 01:06:57;;;;;;;14.77;11.00;;;5.60;99.90;;;;;;5069974;28;20028;-44
2021/11/27 01:09:22;;;;;;;15.13;10.95;;;5.60;99.90;;;;;;5070226;28;20029;-43
2021/11/27 01:11:53;;;;;;;13.18;10.02;;;5.60;99.90;;;;;;5069622;28;20044;-42
2021/11/27 01:14:23;;;;;;;13.93;10.07;;;5.60;99.90;;;;;;5070254;28;20025;-43
2021/11/27 01:16:56;;;;;;;14.63;10.65;;;5.60;99.90;;;;;;5070519;28;20028;-44
2021/11/27 01:19:24;;;;;;;16.35;11.65;;;5.50;99.90;;;;;;5068752;28;20513;-43
2021/11/27 01:22:00;;;;;;;17.02;11.60;;;5.50;99.90;;;;;;5069906;28;20094;-43
2021/11/27 01:24:26;;;;;;;15.82;10.45;;;5.60;99.90;;;;;;5069964;28;20028;-44
2021/11/27 01:26:58;;;;;;;13.98;10.60;;;5.60;99.90;;;;;;5069734;28;20048;-43
2021/11/27 01:29:23;;;;;;;13.57;10.02;;;5.60;99.90;;;;;;5069616;28;20024;-42
2021/11/27 01:31:50;;;;;;;15.52;9.57;;;5.60;99.90;;;;;;5069574;28;20024;-43
2021/11/27 01:34:15;;;;;;;15.35;10.18;;;5.60;99.90;;;;;;5069983;28;20031;-43
2021/11/27 01:36:41;;;;;;;13.60;10.00;;;5.70;99.90;;;;;;5058608;28;20029;-42
2021/11/27 01:39:07;;;;;;;11.70;8.23;;;5.60;99.90;;;;;;5069621;28;20116;-43
2021/11/27 01:41:34;;;;;;;12.15;7.75;;;5.60;99.90;;;;;;5069395;28;20040;-43
2021/11/27 01:44:00;;;;;;;10.45;7.50;;;5.70;99.90;;;;;;5069615;28;20128;-43
2021/11/27 01:46:26;;;;;;;10.25;7.22;;;5.70;99.90;;;;;;5067836;28;20104;-43
2021/11/27 01:48:51;;;;;;;9.63;7.70;;;5.70;99.90;;;;;;5069407;28;20016;-42
2021/11/27 01:51:19;;;;;;;9.85;7.50;;;5.70;99.90;;;;;;5070100;28;20060;-42
2021/11/27 01:53:51;;;;;;;9.05;5.40;;;5.60;99.90;;;;;;5069706;28;20024;-43
2021/11/27 01:56:21;;;;;;;7.38;4.10;;;5.50;99.90;;;;;;5069897;28;20029;-44
2021/11/27 01:58:47;;;;;;;5.35;3.60;;;5.40;99.90;;;;;;5050493;28;20025;-44
2021/11/27 02:01:21;;;;;;;4.85;3.05;;;5.30;99.90;;;;;;5063083;28;20046;-43
2021/11/27 02:03:56;;;;;;;4.38;2.60;;;5.20;99.90;;;;;;5070396;28;20029;-44
2021/11/27 02:06:24;;;;;;;2.60;2.40;;;5.20;99.90;;;;;;5069886;28;20025;-44
2021/11/27 02:08:52;;;;;;;4.72;2.45;;;5.10;99.90;;;;;;5069061;28;20017;-43
2021/11/27 02:11:21;;;;;;;1.85;1.50;;;5.10;99.90;;;;;;5069522;28;20028;-43
2021/11/27 02:13:47;;;;;;;4.13;2.25;;;5.00;99.90;;;;;;5069801;28;20118;-42
2021/11/27 02:16:13;;;;;;;4.07;2.38;;;5.00;99.90;;;;;;5068637;28;20384;-42
2021/11/27 02:18:39;;;;;;;2.80;1.73;;;4.90;99.90;;;;;;5069209;28;20048;-43
2021/11/27 02:21:08;;;;;;;2.85;1.60;;;4.80;99.90;;;;;;5069024;28;20431;-42
2021/11/27 02:23:37;;;;;;;3.38;1.30;;;4.80;99.90;;;;;;5068753;28;20442;-43
2021/11/27 02:26:06;;;;;;;3.20;1.65;;;4.70;99.90;;;;;;5068926;28;20096;-43
2021/11/27 02:28:37;;;;;;;2.65;1.40;;;4.70;99.90;;;;;;5069186;28;20039;-42
2021/11/27 02:31:04;;;;;;;4.43;1.48;;;4.70;99.90;;;;;;5069452;28;20025;-42
2021/11/27 02:33:30;;;;;;;2.60;1.30;;;4.70;99.90;;;;;;5069286;28;20112;-43
2021/11/27 02:35:56;;;;;;;6.65;1.67;;;4.60;99.90;;;;;;5068765;28;20112;-42
2021/11/27 02:38:22;;;;;;;2.45;1.17;;;4.60;99.90;;;;;;5068643;28;20028;-43
2021/11/27 02:40:49;;;;;;;3.13;1.50;;;4.50;99.90;;;;;;5069335;28;20056;-42
2021/11/27 02:43:15;;;;;;;2.05;1.13;;;4.40;99.90;;;;;;5068360;28;20028;-42
2021/11/27 02:45:43;;;;;;;3.08;1.33;;;4.30;99.90;;;;;;5069250;28;20039;-44
2021/11/27 02:48:09;;;;;;;1.95;1.10;;;4.30;99.90;;;;;;5068296;28;20021;-43
2021/11/27 02:50:35;;;;;;;3.10;1.45;;;4.20;99.90;;;;;;5067846;28;20487;-43
2021/11/27 02:53:01;;;;;;;3.13;1.42;;;4.20;99.90;;;;;;5068310;28;20575;-42
2021/11/27 02:55:27;;;;;;;2.58;1.08;;;4.20;99.90;;;;;;5068282;28;20027;-43
2021/11/27 02:57:52;;;;;;;3.60;1.40;;;4.30;99.90;;;;;;5067531;28;20085;-43
2021/11/27 03:00:21;;;;;;;1.38;1.10;;;4.30;99.90;;;;;;5067186;28;20025;-42
2021/11/27 03:02:49;;;;;;;1.73;0.90;;;4.30;99.90;;;;;;5067538;28;20033;-43
2021/11/27 03:05:15;;;;;;;1.40;1.10;;;4.30;99.90;;;;;;5067802;28;20588;-43
2021/11/27 03:07:40;;;;;;;1.38;1.27;;;4.30;99.90;;;;;;5068401;28;20538;-43
2021/11/27 03:10:08;;;;;;;4.47;1.30;;;4.30;99.90;;;;;;5068209;28;20028;-43
2021/11/27 03:12:35;;;;;;;2.13;1.40;;;4.30;99.90;;;;;;5067254;28;20025;-43
2021/11/27 03:15:01;;;;;;;3.60;1.30;;;4.30;99.90;;;;;;5066950;28;20544;-42
2021/11/27 03:17:26;;;;;;;1.88;1.20;;;4.30;99.90;;;;;;5067923;28;20036;-43
2021/11/27 03:19:52;;;;;;;2.42;1.20;;;4.30;99.90;;;;;;5067667;28;20060;-43
2021/11/27 03:22:19;;;;;;;2.42;0.98;;;4.30;99.90;;;;;;5067645;28;20511;-43
2021/11/27 03:24:46;;;;;;;1.92;1.20;;;4.30;99.90;;;;;;5066176;28;20070;-43
2021/11/27 03:27:14;;;;;;;3.22;1.20;;;4.30;99.90;;;;;;5068178;28;20032;-42
2021/11/27 03:29:40;;;;;;;1.20;1.10;;;4.30;99.90;;;;;;5067882;28;20031;-43
2021/11/27 03:32:09;;;;;;;1.55;1.38;;;4.30;99.90;;;;;;5067468;28;20036;-42
2021/11/27 03:34:35;;;;;;;1.50;1.20;;;4.30;99.90;;;;;;5066081;28;20094;-43
2021/11/27 03:37:06;;;;;;;3.53;1.25;;;4.20;99.90;;;;;;5067035;28;20024;-43
2021/11/27 03:39:32;;;;;;;1.83;1.30;;;4.20;99.90;;;;;;5066829;28;20811;-43
2021/11/27 03:42:10;;;;;;;1.95;1.52;;;4.20;99.90;;;;;;5068288;28;20044;-43
2021/11/27 03:44:36;;;;;;;1.70;1.38;;;4.20;99.90;;;;;;5066675;28;20410;-42
2021/11/27 03:47:02;;;;;;;1.25;1.15;;;4.10;99.90;;;;;;5066883;28;20028;-43
2021/11/27 03:49:32;;;;;;;1.33;1.23;;;4.10;99.90;;;;;;5067373;28;20064;-43
2021/11/27 03:51:59;;;;;;;2.10;1.23;;;4.00;99.90;;;;;;5067916;28;20032;-44
2021/11/27 03:54:26;;;;;;;1.75;1.35;;;4.00;99.90;;;;;;5066621;28;20069;-42
2021/11/27 03:56:52;;;;;;;3.95;1.50;;;4.00;99.90;;;;;;5067904;28;20054;-42
2021/11/27 03:59:18;;;;;;;1.30;1.20;;;4.00;99.90;;;;;;5067211;28;20677;-43
2021/11/27 04:01:44;;;;;;;1.55;1.20;;;4.00;99.90;;;;;;5065743;28;20056;-43
2021/11/27 04:04:10;;;;;;;2.60;1.30;;;4.00;99.90;;;;;;5067413;28;20138;-43
2021/11/27 04:06:36;;;;;;;1.45;1.13;;;4.00;99.90;;;;;;5067417;28;20090;-43
2021/11/27 04:09:05;;;;;;;1.63;1.02;;;4.00;99.90;;;;;;5067263;28;20064;-43
2021/11/27 04:11:31;;;;;;;2.08;0.90;;;4.00;99.90;;;;;;5067187;28;20020;-43
2021/11/27 04:13:56;;;;;;;1.55;1.13;;;3.90;99.90;;;;;;5066696;28;20031;-44
2021/11/27 04:16:22;;;;;;;3.00;1.00;;;3.80;99.90;;;;;;5067022;28;20020;-43
2021/11/27 04:18:47;;;;;;;1.73;1.10;;;3.70;99.90;;;;;;5067652;28;20049;-43
2021/11/27 04:21:18;;;;;;;1.33;1.10;;;3.70;99.90;;;;;;5066543;28;20028;-43
2021/11/27 04:23:44;;;;;;;0.98;0.70;;;3.70;99.90;;;;;;5067240;28;20028;-45
2021/11/27 04:26:10;;;;;;;1.25;0.90;;;3.60;99.90;;;;;;5067492;28;20075;-44
2021/11/27 04:28:36;;;;;;;1.40;1.00;;;3.60;99.90;;;;;;5066524;28;20098;-43
2021/11/27 04:31:02;;;;;;;1.30;0.90;;;3.60;99.90;;;;;;5066392;28;20059;-43
2021/11/27 04:33:28;;;;;;;1.80;1.02;;;3.60;99.90;;;;;;5066947;28;20032;-44
2021/11/27 04:35:54;;;;;;;1.00;0.90;;;3.50;99.90;;;;;;5066619;28;20051;-43
2021/11/27 04:38:19;;;;;;;0.98;0.80;;;3.50;99.90;;;;;;5067108;28;20033;-43
2021/11/27 04:40:45;;;;;;;1.95;0.80;;;3.40;99.90;;;;;;5067427;28;20352;-42
2021/11/27 04:43:11;;;;;;;1.35;0.80;;;3.40;99.90;;;;;;5066129;28;20104;-43
2021/11/27 04:45:36;;;;;;;1.35;0.70;;;3.30;99.90;;;;;;5066444;28;20395;-42
2021/11/27 04:48:02;;;;;;;0.70;0.70;;;3.30;99.90;;;;;;5067081;28;20455;-43
2021/11/27 04:50:30;;;;;;;0.82;0.60;;;3.30;99.90;;;;;;5066271;28;20032;-44
2021/11/27 04:52:56;;;;;;;1.48;0.65;;;3.30;99.90;;;;;;5067077;28;20043;-42
2021/11/27 04:55:22;;;;;;;1.67;0.60;;;3.30;99.90;;;;;;5067491;28;20431;-44
2021/11/27 04:57:57;;;;;;;0.40;0.40;;;3.30;99.90;;;;;;5065424;28;20109;-44
2021/11/27 05:00:27;;;;;;;0.65;0.60;;;3.30;99.90;;;;;;5067394;28;20052;-43
2021/11/27 05:02:53;;;;;;;1.40;0.80;;;3.30;99.90;;;;;;5066810;28;20143;-43
2021/11/27 05:05:19;;;;;;;1.20;0.70;;;3.40;99.90;;;;;;5066595;28;20388;-43
2021/11/27 05:07:45;;;;;;;1.58;0.57;;;3.40;99.90;;;;;;5067017;28;20021;-42
2021/11/27 05:10:11;;;;;;;0.75;0.70;;;3.40;99.90;;;;;;5066712;28;20052;-44
2021/11/27 05:12:37;;;;;;;1.38;0.60;;;3.30;99.90;;;;;;5065603;28;20028;-44
2021/11/27 05:15:04;;;;;;;1.90;0.70;;;3.30;99.90;;;;;;5066573;28;20502;-43
2021/11/27 05:17:30;;;;;;;1.67;0.70;;;3.30;99.90;;;;;;5066344;28;20086;-42
2021/11/27 05:19:56;;;;;;;0.98;0.50;;;3.30;99.90;;;;;;5066550;28;20430;-42
2021/11/27 05:22:22;;;;;;;1.55;0.82;;;3.30;99.90;;;;;;5067273;28;20043;-43
2021/11/27 05:24:47;;;;;;;0.82;0.65;;;3.30;99.90;;;;;;5070184;28;20032;-43
2021/11/27 05:27:15;;;;;;;0.70;0.70;;;3.30;99.90;;;;;;5069397;28;20016;-43
2021/11/27 05:29:41;;;;;;;1.30;0.70;;;3.30;99.90;;;;;;5070237;28;20064;-44
2021/11/27 05:32:08;;;;;;;1.25;0.80;;;3.30;99.90;;;;;;5069675;28;20028;-44
2021/11/27 05:34:34;;;;;;;0.85;0.70;;;3.40;99.90;;;;;;5070279;28;20016;-43
2021/11/27 05:37:02;;;;;;;0.65;0.65;;;3.40;99.90;;;;;;5070431;28;20031;-43
2021/11/27 05:39:28;;;;;;;1.33;0.70;;;3.40;99.90;;;;;;5068991;28;20547;-44
2021/11/27 05:41:53;;;;;;;1.23;0.90;;;3.40;99.90;;;;;;5070284;28;20054;-42
2021/11/27 05:44:19;;;;;;;1.02;0.82;;;3.40;99.90;;;;;;5070545;28;20033;-43
2021/11/27 05:46:44;;;;;;;0.80;0.77;;;3.40;99.90;;;;;;5069548;28;20421;-43
2021/11/27 05:49:10;;;;;;;1.33;1.10;;;3.40;99.90;;;;;;5069850;28;20040;-42
2021/11/27 05:51:35;;;;;;;0.95;0.88;;;3.40;99.90;;;;;;5069965;28;20051;-43
2021/11/27 05:54:01;;;;;;;2.90;0.80;;;3.40;99.90;;;;;;5069179;28;20119;-43
2021/11/27 05:56:26;;;;;;;1.33;0.88;;;3.30;99.90;;;;;;5069650;28;20070;-43
2021/11/27 05:58:52;;;;;;;1.20;0.82;;;3.30;99.90;;;;;;5069977;28;20017;-43
2021/11/27 06:01:17;;;;;;;0.70;0.70;;;3.30;99.90;;;;;;5068926;28;20048;-43
2021/11/27 06:03:43;;;;;;;1.83;0.75;;;3.30;99.90;;;;;;5068846;28;20082;-42
2021/11/27 06:06:11;;;;;;;1.08;0.98;;;3.30;99.90;;;;;;5069454;28;20078;-43
2021/11/27 06:08:37;;;;;;;1.58;0.80;;;3.30;99.90;;;;;;5068736;28;20025;-43
2021/11/27 06:11:05;;;;;;;1.00;0.70;;;3.30;99.90;;;;;;5068089;28;20031;-42
2021/11/27 06:13:30;;;;;;;0.73;0.73;;;3.30;99.90;;;;;;5069236;28;20444;-42
2021/11/27 06:15:56;;;;;;;1.20;0.90;;;3.30;99.90;;;;;;5069051;28;20028;-42
2021/11/27 06:18:21;;;;;;;1.85;1.00;;;3.30;99.90;;;;;;5068914;28;20044;-44
2021/11/27 06:20:47;;;;;;;1.70;0.80;;;3.30;99.90;;;;;;5068725;28;20074;-43
2021/11/27 06:23:14;;;;;;;1.77;0.90;;;3.30;99.90;;;;;;5068931;28;20515;-43
2021/11/27 06:25:39;;;;;;;1.30;1.00;;;3.30;99.90;;;;;;5068627;28;20027;-42
2021/11/27 06:28:05;;;;;;;1.15;0.77;;;3.30;99.90;;;;;;5068926;28;20041;-42
2021/11/27 06:30:33;;;;;;;1.65;1.20;;;3.20;99.90;;;;;;5068640;28;20361;-43
2021/11/27 06:33:01;;;;;;;1.10;1.00;;;3.20;99.90;;;;;;5068900;28;20039;-42
2021/11/27 06:35:27;;;;;;;2.20;0.98;;;3.20;99.90;;;;;;5068421;28;20020;-42
2021/11/27 06:37:53;;;;;;;1.95;0.90;;;3.20;99.90;;;;;;5068808;28;20521;-43
2021/11/27 06:40:19;;;;;;;1.13;1.02;;;3.20;99.90;;;;;;5068976;28;20123;-43
2021/11/27 06:42:44;;;;;;;1.33;1.23;;;3.10;99.90;;;;;;5068178;28;20044;-43
2021/11/27 06:45:13;;;;;;;1.00;0.90;;;3.10;99.90;;;;;;5069036;28;20020;-43
2021/11/27 06:47:38;;;;;;;1.17;1.08;;;3.10;99.90;;;;;;5068839;28;20024;-42
2021/11/27 06:50:04;;;;;;;1.65;1.27;;;3.10;99.90;;;;;;5068333;28;20019;-42
2021/11/27 06:52:30;;;;;;;1.13;1.00;;;3.10;99.90;;;;;;5068211;28;20025;-43
2021/11/27 06:54:55;;;;;;;1.52;1.17;;;3.00;99.90;;;;;;5068760;28;20013;-43
2021/11/27 06:57:21;;;;;;;1.20;1.10;;;3.00;99.90;;;;;;5067885;28;20032;-44
2021/11/27 06:59:46;;;;;;;1.38;1.27;;;3.00;99.90;;;;;;5069034;28;20029;-42
2021/11/27 07:02:18;;;;;;;1.30;1.20;;;2.90;99.90;;;;;;5068596;28;20032;-43
2021/11/27 07:04:46;;;;;;;2.25;1.10;;;2.90;99.90;;;;;;5067609;28;20025;-43
2021/11/27 07:07:12;;;;;;;1.50;1.40;;;2.90;99.90;;;;;;5067957;28;20032;-42
2021/11/27 07:09:40;;;;;;;1.48;1.38;;;2.90;99.90;;;;;;5068638;28;20032;-44
2021/11/27 07:12:06;;;;;;;1.88;1.60;;;2.90;99.90;;;;;;5068297;28;20036;-43
2021/11/27 07:14:32;;;;;;;1.40;1.10;;;2.90;99.90;;;;;;5068680;28;20024;-43
2021/11/27 07:16:57;;;;;;;1.30;1.20;;;2.90;99.90;;;;;;5067124;28;20545;-44
2021/11/27 07:19:23;;;;;;;1.65;1.38;;;2.90;99.90;;;;;;5068018;28;20519;-42
2021/11/27 07:21:51;;;;;;;1.60;1.50;;;2.90;99.90;;;;;;5068531;28;20144;-44
2021/11/27 07:24:20;;;;;;;2.00;1.45;;;2.90;99.90;;;;;;5067950;28;20035;-42
2021/11/27 07:26:45;;;;;;;1.70;1.60;;;2.90;99.90;;;;;;5068066;28;20510;-43
2021/11/27 07:29:11;;;;;;;1.95;1.85;;;2.90;99.90;;;;;;5068424;28;20056;-44
2021/11/27 07:31:37;;;;;;;1.90;1.80;;;2.90;99.90;;;;;;5066871;28;20083;-42
2021/11/27 07:34:02;;;;;;;1.83;1.73;;;2.80;99.90;;;;;;5068258;28;20028;-43
2021/11/27 07:36:31;;;;;;;1.73;1.63;;;2.90;99.90;;;;;;5067903;28;20067;-43
2021/11/27 07:38:56;;;;;;;1.80;1.70;;;2.90;99.90;;;;;;5067212;28;20028;-44
2021/11/27 07:41:22;;;;;;;1.95;1.85;;;2.90;99.90;;;;;;5067818;28;20565;-42
2021/11/27 07:43:47;;;;;;;2.25;1.70;;;2.90;99.90;;;;;;5068494;28;20016;-43
2021/11/27 07:46:13;;;;;;;1.73;1.63;;;2.90;99.90;;;;;;5066690;28;20078;-43
2021/11/27 07:48:40;;;;;;;2.10;1.65;;;2.90;99.90;;;;;;5067782;28;20016;-43
2021/11/27 07:51:06;;;;;;;2.40;2.15;;;2.90;99.90;;;;;;5067880;28;20027;-43
2021/11/27 07:53:32;;;;;;;1.70;1.60;;;2.80;99.90;;;;;;5066698;28;20024;-43
2021/11/27 07:55:58;;;;;;;2.72;1.92;;;2.80;99.90;;;;;;5067912;28;20052;-42
2021/11/27 07:58:23;;;;;;;2.78;2.40;;;2.80;99.90;;;;;;5067636;28;20020;-43
2021/11/27 08:00:49;;;;;;;2.63;2.15;;;2.80;99.90;;;;;;5067134;28;20024;-44
2021/11/27 08:03:15;;;;;;;2.90;2.53;;;2.80;99.90;;;;;;5067734;28;20100;-42
2021/11/27 08:05:40;;;;;;;2.60;2.10;;;2.80;99.90;;;;;;5067508;28;20024;-42
2021/11/27 08:08:06;;;;;;;2.70;2.50;;;2.80;99.90;;;;;;5066979;28;20051;-43
2021/11/27 08:10:32;;;;;;;2.88;2.35;;;2.80;99.90;;;;;;5067916;28;20024;-43
2021/11/27 08:12:57;;;;;;;2.50;2.22;;;2.80;99.90;;;;;;5067241;28;20036;-43
2021/11/27 08:15:24;;;;;;;2.85;2.40;;;2.80;99.90;;;;;;5067437;28;20563;-43
2021/11/27 08:17:49;;;;;;;3.97;2.70;;;2.70;99.90;;;;;;5066853;28;20017;-44
2021/11/27 08:20:15;;;;;;;5.50;3.67;;;2.70;99.90;;;;;;5066983;28;20224;-44
2021/11/27 08:22:41;;;;;;;3.17;2.88;;;2.70;99.90;;;;;;5067843;28;20079;-43
2021/11/27 08:25:07;;;;;;;3.92;2.50;;;2.70;99.90;;;;;;5067121;28;20034;-44
2021/11/27 08:27:34;;;;;;;3.67;2.80;;;2.60;99.90;;;;;;5066041;28;20480;-43
2021/11/27 08:30:03;;;;;;;2.95;2.67;;;2.70;99.90;;;;;;5067381;28;20016;-43
2021/11/27 08:32:30;;;;;;;3.08;2.78;;;2.70;99.90;;;;;;5067340;28;20036;-43
2021/11/27 08:34:56;;;;;;;4.05;2.95;;;2.70;99.90;;;;;;5066373;28;20049;-44
2021/11/27 08:37:21;;;;;;;2.80;2.50;;;2.60;99.90;;;;;;5067301;28;20048;-43
2021/11/27 08:39:47;;;;;;;3.30;3.00;;;2.60;99.90;;;;;;5066000;28;20013;-43
2021/11/27 08:42:12;;;;;;;3.72;2.40;;;2.60;99.90;;;;;;5064792;28;20063;-43
2021/11/27 08:44:38;;;;;;;2.75;2.50;;;2.60;99.90;;;;;;5067157;28;20491;-46
2021/11/27 08:47:04;;;;;;;3.47;3.00;;;2.60;99.90;;;;;;5067457;28;20021;-43
2021/11/27 08:49:29;;;;;;;3.25;2.95;;;2.70;99.90;;;;;;5066381;28;20029;-42
2021/11/27 08:51:55;;;;;;;4.13;3.60;;;2.70;99.90;;;;;;5067145;28;20195;-43
2021/11/27 08:54:20;;;;;;;3.83;3.15;;;2.80;99.90;;;;;;5067156;28;20017;-44
2021/11/27 08:56:46;;;;;;;3.50;3.20;;;2.80;99.90;;;;;;5067365;28;20039;-44
2021/11/27 08:59:12;;;;;;;4.07;3.50;;;2.80;99.90;;;;;;5067744;28;20116;-43
2021/11/27 09:01:38;;;;;;;2.85;2.63;;;2.80;99.90;;;;;;5067309;28;20072;-44
2021/11/27 09:04:04;;;;;;;3.72;3.35;;;2.80;99.90;;;;;;5068167;28;20028;-43
2021/11/27 09:06:30;;;;;;;3.67;2.80;;;2.90;99.90;;;;;;5068426;28;20032;-43
2021/11/27 09:08:55;;;;;;;4.28;3.20;;;2.90;99.90;;;;;;5068791;28;20469;-44
2021/11/27 09:11:23;;;;;;;3.45;2.95;;;2.90;99.90;;;;;;5067672;28;20021;-43
2021/11/27 09:13:50;;;;;;;3.10;2.80;;;3.00;99.90;;;;;;5068843;28;20024;-43
2021/11/27 09:16:17;;;;;;;3.25;2.80;;;3.00;99.90;;;;;;5069672;28;20184;-44
2021/11/27 09:18:43;;;;;;;2.75;2.33;;;3.00;99.90;;;;;;5068514;28;20605;-42
2021/11/27 09:21:09;;;;;;;2.72;2.50;;;3.00;99.90;;;;;;5069970;28;20059;-43
2021/11/27 09:23:35;;;;;;;3.20;2.40;;;3.00;99.90;;;;;;5069427;28;20063;-43
2021/11/27 09:26:00;;;;;;;4.97;2.30;;;3.00;99.90;;;;;;5070208;28;20025;-43
2021/11/27 09:28:26;;;;;;;2.38;2.17;;;3.00;99.90;;;;;;5070115;28;20028;-43
2021/11/27 09:30:52;;;;;;;2.30;2.10;;;3.00;99.90;;;;;;5071005;28;20081;-42
2021/11/27 09:33:18;;;;;;;3.70;2.22;;;3.00;99.90;;;;;;5070339;28;20032;-43
2021/11/27 09:35:56;;;;;;;2.17;1.98;;;3.00;99.90;;;;;;5069607;28;20020;-44
2021/11/27 09:38:21;;;;;;;2.17;1.92;;;3.10;99.90;;;;;;5069256;28;20028;-43
2021/11/27 09:40:51;;;;;;;2.40;1.92;;;3.10;99.90;;;;;;5069666;28;20016;-42
2021/11/27 09:43:17;;;;;;;1.70;1.60;;;3.10;99.90;;;;;;5069474;28;20119;-44
2021/11/27 09:45:43;;;;;;;2.00;1.60;;;3.20;99.90;;;;;;5068306;28;20017;-43
2021/11/27 09:48:09;;;;;;;2.50;2.10;;;3.20;99.90;;;;;;5069698;28;20021;-43
2021/11/27 09:50:35;;;;;;;2.40;2.17;;;3.20;99.90;;;;;;5069210;28;20427;-43
2021/11/27 09:53:01;;;;;;;2.97;2.40;;;3.20;99.90;;;;;;5068723;28;20658;-43
2021/11/27 09:55:27;;;;;;;2.88;2.17;;;3.20;99.90;;;;;;5068935;28;20131;-44
2021/11/27 09:57:52;;;;;;;2.22;1.88;;;3.10;99.90;;;;;;5068975;28;20113;-43
2021/11/27 10:00:20;;;;;;;2.58;1.80;;;3.20;99.90;;;;;;5069993;28;20063;-43
2021/11/27 10:02:53;;;;;;;3.53;1.80;;;3.20;99.90;;;;;;5068739;28;20078;-43
2021/11/27 10:05:19;;;;;;;;;;;3.30;99.90;;;;;;5070501;28;20074;-43
2021/11/27 10:07:46;;;;;;;1.88;1.60;;;3.30;99.90;;;;;;5067914;28;19908;-44
2021/11/27 10:10:13;;;;;;;1.92;1.48;;;3.30;99.90;;;;;;5048675;28;20021;-43
2021/11/27 10:12:42;;;;;;;2.42;1.70;;;3.40;99.90;;;;;;5062573;28;20036;-43
2021/11/27 10:15:10;;;;;;;2.75;1.60;;;3.40;99.90;;;;;;5069352;28;20040;-42
2021/11/27 10:17:36;;;;;;;1.60;1.42;;;3.40;99.90;;;;;;5065946;28;20052;-42
2021/11/27 10:20:04;;;;;;;2.10;1.55;;;3.40;99.90;;;;;;5068055;28;20692;-42
2021/11/27 10:22:53;;;;;;;1.95;1.65;;;3.40;99.90;;;;;;5068463;28;20032;-43
2021/11/27 10:25:21;;;;;;;2.30;1.83;;;3.40;99.90;;;;;;5069948;28;20068;-42
2021/11/27 10:27:50;;;;;;;2.20;1.80;;;3.50;99.90;;;;;;5068268;28;20500;-43
2021/11/27 10:30:16;;;;;;;2.65;2.10;;;3.50;99.90;;;;;;5069878;28;20020;-43
2021/11/27 10:32:44;;;;;;;2.50;2.03;;;3.50;99.90;;;;;;5068044;28;20035;-42
2021/11/27 10:35:16;;;;;;;3.25;2.35;;;3.50;99.90;;;;;;5068550;28;20016;-43
2021/11/27 10:37:53;;;;;;;2.30;1.83;;;3.60;99.90;;;;;;5069155;28;20066;-43
2021/11/27 10:40:22;;;;;;;3.53;2.20;;;3.70;99.90;;;;;;5069363;28;20353;-43
2021/11/27 10:42:49;;;;;;;2.45;2.00;;;3.70;99.90;;;;;;5068137;28;20029;-42
2021/11/27 10:45:21;;;;;;;3.35;2.20;;;3.70;99.90;;;;;;5068316;28;20024;-42
2021/11/27 10:47:49;;;;;;;5.28;2.85;;;3.70;99.90;;;;;;5066705;28;20023;-43
2021/11/27 10:50:19;;;;;;;3.97;3.08;;;3.70;99.90;;;;;;5067995;28;20031;-43
2021/11/27 10:52:47;;;;;;;4.80;2.88;;;3.80;99.90;;;;;;5068299;28;20020;-43
2021/11/27 10:55:20;;;;;;;5.65;3.08;;;3.80;99.90;;;;;;5067201;28;20020;-42
2021/11/27 10:57:52;;;;;;;6.43;3.92;;;3.80;99.90;;;;;;5067791;28;20111;-43
2021/11/27 11:00:29;;;;;;;5.63;3.33;;;3.90;99.90;;;;;;5067648;28;20028;-43
2021/11/27 11:02:59;;;;;;;6.53;3.85;;;3.90;99.90;;;;;;5067026;28;20036;-44
2021/11/27 11:05:39;;;;;;;7.50;3.78;;;4.00;99.90;;;;;;5067753;28;20061;-43
2021/11/27 11:08:07;;;;;;;6.90;3.63;;;4.00;99.90;;;;;;5067852;28;20386;-43
2021/11/27 11:10:35;;;;;;;6.32;3.63;;;4.10;99.90;;;;;;5066497;28;20123;-43
2021/11/27 11:13:01;;;;;;;8.35;4.72;;;4.10;99.90;;;;;;5066868;28;20029;-42
2021/11/27 11:15:31;;;;;;;7.28;4.72;;;4.20;99.90;;;;;;5063899;28;20376;-44
2021/11/27 11:18:41;;;;;;;8.98;6.05;;;4.30;99.90;;;;;;5067280;28;20162;-43
2021/11/27 11:21:06;;;;;;;10.25;6.47;;;4.30;99.90;;;;;;5064270;28;20056;-43
2021/11/27 11:23:35;;;;;;;15.55;8.50;;;4.40;99.90;;;;;;5067526;28;20067;-43
2021/11/27 11:26:06;;;;;;;15.02;9.20;;;4.40;99.90;;;;;;5067897;28;20072;-44
2021/11/27 11:28:35;;;;;;;17.17;9.88;;;4.50;99.90;;;;;;5067705;28;20089;-43
2021/11/27 11:31:04;;;;;;;15.98;9.32;;;4.50;99.90;;;;;;5066485;28;20008;-42
2021/11/27 11:33:33;;;;;;;18.83;11.60;;;4.60;99.90;;;;;;5068246;28;20353;-43
2021/11/27 11:36:00;;;;;;;19.92;11.27;;;4.60;99.90;;;;;;5067530;28;20158;-45
2021/11/27 11:38:26;;;;;;;20.95;12.63;;;4.60;99.90;;;;;;5067680;28;20032;-42
2021/11/27 11:40:53;;;;;;;19.85;12.60;;;4.70;99.90;;;;;;5067662;28;20028;-42
2021/11/27 11:43:19;;;;;;;20.60;12.52;;;4.70;99.90;;;;;;5067638;28;20045;-43
2021/11/27 11:45:48;;;;;;;22.23;12.05;;;4.80;99.90;;;;;;5067047;28;20013;-44
2021/11/27 11:48:24;;;;;;;22.80;12.75;;;4.80;99.90;;;;;;5067991;28;20032;-42
2021/11/27 11:50:58;;;;;;;18.48;9.98;;;4.90;99.90;;;;;;5067322;28;20495;-42
2021/11/27 11:53:39;;;;;;;18.65;11.10;;;5.00;99.90;;;;;;5067212;28;20400;-42
2021/11/27 11:56:07;;;;;;;17.15;10.40;;;5.10;99.90;;;;;;5067529;28;20029;-43
2021/11/27 11:58:41;;;;;;;21.27;11.05;;;5.10;99.90;;;;;;5066308;28;20108;-45
2021/11/27 12:01:29;;;;;;;21.80;12.02;;;5.20;99.90;;;;;;5067076;28;20643;-44
2021/11/27 12:03:55;;;;;;;22.20;11.15;;;5.20;99.90;;;;;;5068217;28;20017;-42
2021/11/27 12:06:20;;;;;;;17.35;9.48;;;5.30;99.90;;;;;;5067054;28;20440;-43
2021/11/27 12:08:49;;;;;;;15.55;10.18;;;5.30;99.90;;;;;;5067832;28;20082;-43
2021/11/27 12:11:54;;;;;;;18.75;10.50;;;5.40;99.90;;;;;;5067141;28;20017;-44
2021/11/27 12:14:22;;;;;;;19.15;11.13;;;5.50;99.90;;;;;;5045732;28;20037;-44
2021/11/27 12:17:14;;;;;;;24.02;11.80;;;5.50;99.90;;;;;;5061225;28;20036;-43
2021/11/27 12:19:47;;;;;;;19.67;11.07;;;5.60;99.90;;;;;;5046389;28;20045;-44
2021/11/27 12:22:31;;;;;;;22.52;13.10;;;5.60;99.90;;;;;;5063137;28;20036;-43
2021/11/27 12:25:12;;;;;;;31.58;13.73;;;5.70;99.90;;;;;;5047418;28;20086;-44
2021/11/27 12:28:01;;;;;;;26.52;13.38;;;5.70;99.90;;;;;;5064083;28;20036;-43
2021/11/27 12:30:36;;;;;;;23.73;13.85;;;5.70;99.90;;;;;;5061515;28;20669;-43
2021/11/27 12:33:02;;;;;;;24.60;13.02;;;5.70;99.90;;;;;;5070665;28;20040;-42
2021/11/27 12:35:30;;;;;;;24.00;13.20;;;5.70;99.90;;;;;;5069583;28;20032;-44
2021/11/27 12:38:07;;;;;;;24.58;12.90;;;5.70;99.90;;;;;;5070395;28;20025;-43
2021/11/27 12:41:00;;;;;;;26.48;12.50;;;5.80;99.90;;;;;;5070003;28;20089;-44
2021/11/27 12:43:26;;;;;;;19.60;11.43;;;5.80;99.90;;;;;;5067433;28;20072;-43
2021/11/27 12:45:57;;;;;;;18.77;10.35;;;5.90;99.90;;;;;;5070706;28;20028;-44
2021/11/27 12:48:31;;;;;;;19.60;11.27;;;5.90;99.90;;;;;;5070475;28;20680;-44
2021/11/27 12:51:16;;;;;;;21.88;10.63;;;5.90;99.90;;;;;;5068460;28;20036;-43
2021/11/27 12:54:02;;;;;;;21.25;10.48;;;5.80;99.90;;;;;;5070727;28;20457;-43
2021/11/27 12:56:53;;;;;;;19.50;10.95;;;5.80;99.90;;;;;;5065806;28;20555;-43